createdAt,value
2022-11-20T00:01:36.091Z,95074.00
2022-11-20T00:04:04.267Z,95091.00
2022-11-20T00:06:32.523Z,95122.00
2022-11-20T00:09:02.424Z,95112.00
2022-11-20T00:11:32.643Z,95102.00
2022-11-20T00:14:03.657Z,95139.00
2022-11-20T00:16:35.319Z,95234.00
2022-11-20T00:19:03.690Z,95160.00
2022-11-20T00:21:32.651Z,95132.00
2022-11-20T00:24:00.972Z,95051.00
2022-11-20T00:26:31.115Z,95179.00
2022-11-20T00:29:02.498Z,95139.00
2022-11-20T00:31:31.607Z,95135.00
2022-11-20T00:34:00.997Z,95225.00
2022-11-20T00:36:33.386Z,95172.00
2022-11-20T00:39:02.118Z,95113.00
2022-11-20T00:41:31.662Z,95119.00
2022-11-20T00:44:00.151Z,95105.00
2022-11-20T00:46:30.236Z,95152.00
2022-11-20T00:49:00.079Z,95163.00
2022-11-20T00:51:29.642Z,95465.00
2022-11-20T00:53:58.779Z,95261.00
2022-11-20T00:56:27.079Z,95271.00
2022-11-20T00:58:55.180Z,95258.00
2022-11-20T01:01:26.067Z,95263.00
2022-11-20T01:03:56.711Z,95269.00
2022-11-20T01:06:29.159Z,95277.00
2022-11-20T01:08:59.964Z,95347.00
2022-11-20T01:11:30.990Z,95194.00
2022-11-20T01:14:02.762Z,95250.00
2022-11-20T01:16:34.455Z,95215.00
2022-11-20T01:19:06.376Z,95280.00
2022-11-20T01:21:38.894Z,95209.00
2022-11-20T01:24:09.720Z,95250.00
2022-11-20T01:26:41.107Z,95257.00
2022-11-20T01:29:14.511Z,95218.00
2022-11-20T01:31:43.626Z,95215.00
2022-11-20T01:34:15.835Z,95227.00
2022-11-20T01:36:46.307Z,95243.00
2022-11-20T01:39:18.580Z,95321.00
2022-11-20T01:42:09.863Z,95325.00
2022-11-20T01:44:58.499Z,95203.00
2022-11-20T01:47:35.385Z,95281.00
2022-11-20T01:50:16.478Z,95344.00
2022-11-20T01:52:52.860Z,95190.00
2022-11-20T01:55:27.053Z,95085.00
2022-11-20T01:57:55.381Z,95022.00
2022-11-20T02:00:24.091Z,95052.00
2022-11-20T02:02:57.075Z,95040.00
2022-11-20T02:05:31.501Z,95103.00
2022-11-20T02:08:02.387Z,95085.00
2022-11-20T02:10:31.577Z,95253.00
2022-11-20T02:13:16.805Z,95350.00
2022-11-20T02:15:45.980Z,95044.00
2022-11-20T02:18:17.067Z,95177.00
2022-11-20T02:20:48.858Z,95023.00
2022-11-20T02:23:30.301Z,95060.00
2022-11-20T02:26:01.910Z,95116.00
2022-11-20T02:28:30.095Z,95210.00
2022-11-20T02:30:58.426Z,95271.00
2022-11-20T02:33:26.480Z,95179.00
2022-11-20T02:35:54.659Z,95092.00
2022-11-20T02:38:23.306Z,95140.00
2022-11-20T02:40:55.356Z,95415.00
2022-11-20T02:43:25.515Z,95161.00
2022-11-20T02:45:53.600Z,95170.00
2022-11-20T02:48:22.398Z,95408.00
2022-11-20T02:50:52.654Z,95195.00
2022-11-20T02:53:20.726Z,95260.00
2022-11-20T02:55:48.731Z,95381.00
2022-11-20T02:58:16.819Z,95282.00
2022-11-20T03:00:46.372Z,95281.00
2022-11-20T03:03:14.419Z,95248.00
2022-11-20T03:05:42.490Z,95290.00
2022-11-20T03:08:10.541Z,95280.00
2022-11-20T03:10:38.603Z,95307.00
2022-11-20T03:13:06.654Z,95350.00
2022-11-20T03:15:34.734Z,95400.00
2022-11-20T03:18:04.199Z,95380.00
2022-11-20T03:20:34.058Z,95195.00
2022-11-20T03:23:02.354Z,95284.00
2022-11-20T03:25:30.452Z,95223.00
2022-11-20T03:27:58.500Z,95227.00
2022-11-20T03:30:30.583Z,95244.00
2022-11-20T03:32:59.135Z,95236.00
2022-11-20T03:35:28.656Z,95260.00
2022-11-20T03:37:56.708Z,95252.00
2022-11-20T03:40:24.763Z,95264.00
2022-11-20T03:42:52.852Z,95303.00
2022-11-20T03:45:21.259Z,95328.00
2022-11-20T03:47:49.543Z,95389.00
2022-11-20T03:50:17.819Z,95461.00
2022-11-20T03:52:47.385Z,95397.00
2022-11-20T03:55:15.491Z,95432.00
2022-11-20T03:57:43.536Z,95305.00
2022-11-20T04:00:13.647Z,95336.00
2022-11-20T04:02:41.718Z,95436.00
2022-11-20T04:05:10.387Z,95347.00
2022-11-20T04:07:38.604Z,95275.00
2022-11-20T04:10:09.367Z,95266.00
2022-11-20T04:12:37.455Z,95094.00
2022-11-20T04:15:06.470Z,95094.00
2022-11-20T04:17:34.573Z,95086.00
2022-11-20T04:20:02.844Z,95275.00
2022-11-20T04:22:30.906Z,95002.00
2022-11-20T04:24:58.960Z,95128.00
2022-11-20T04:27:28.375Z,95295.00
2022-11-20T04:29:56.428Z,95188.00
2022-11-20T04:32:24.488Z,95033.00
2022-11-20T04:34:52.711Z,95204.00
2022-11-20T04:37:20.887Z,95125.00
2022-11-20T04:39:48.982Z,95141.00
2022-11-20T04:42:32.264Z,94998.00
2022-11-20T04:45:01.824Z,94938.00
2022-11-20T04:47:29.903Z,95045.00
2022-11-20T04:49:58.003Z,95088.00
2022-11-20T04:52:26.122Z,95053.00
2022-11-20T04:54:54.706Z,95102.00
2022-11-20T04:57:22.858Z,94976.00
2022-11-20T04:59:50.993Z,94961.00
2022-11-20T05:02:20.878Z,94950.00
2022-11-20T05:04:50.802Z,94897.00
2022-11-20T05:07:19.299Z,94851.00
2022-11-20T05:09:47.390Z,95022.00
2022-11-20T05:12:15.453Z,94863.00
2022-11-20T05:14:43.509Z,94851.00
2022-11-20T05:17:13.411Z,95059.00
2022-11-20T05:19:42.844Z,95064.00
2022-11-20T05:22:10.898Z,95104.00
2022-11-20T05:24:39.025Z,95038.00
2022-11-20T05:27:07.088Z,94753.00
2022-11-20T05:29:35.169Z,94891.00
2022-11-20T05:32:03.247Z,94841.00
2022-11-20T05:34:31.327Z,94835.00
2022-11-20T05:37:02.183Z,94809.00
2022-11-20T05:39:30.259Z,94904.00
2022-11-20T05:42:12.298Z,94891.00
2022-11-20T05:44:40.532Z,94940.00
2022-11-20T05:47:08.613Z,94918.00
2022-11-20T05:49:36.651Z,94945.00
2022-11-20T05:52:06.303Z,94987.00
2022-11-20T05:54:34.630Z,95006.00
2022-11-20T05:57:02.819Z,94972.00
2022-11-20T05:59:30.918Z,95051.00
2022-11-20T06:01:59.046Z,95022.00
2022-11-20T06:04:27.307Z,95064.00
2022-11-20T06:06:55.427Z,94910.00
2022-11-20T06:09:24.839Z,95204.00
2022-11-20T06:11:52.906Z,95131.00
2022-11-20T06:14:21.049Z,95029.00
2022-11-20T06:16:49.102Z,95012.00
2022-11-20T06:19:17.547Z,94981.00
2022-11-20T06:21:45.607Z,94874.00
2022-11-20T06:24:13.939Z,94853.00
2022-11-20T06:26:43.363Z,94881.00
2022-11-20T06:29:11.547Z,94915.00
2022-11-20T06:31:40.060Z,94936.00
2022-11-20T06:34:08.860Z,94921.00
2022-11-20T06:36:37.064Z,94908.00
2022-11-20T06:39:05.759Z,94718.00
2022-11-20T06:41:33.844Z,94917.00
2022-11-20T06:44:03.239Z,94965.00
2022-11-20T06:46:31.311Z,95053.00
2022-11-20T06:48:59.720Z,95124.00
2022-11-20T06:51:27.762Z,95107.00
2022-11-20T06:53:56.182Z,95179.00
2022-11-20T06:56:24.230Z,95048.00
2022-11-20T06:58:52.327Z,94936.00
2022-11-20T07:01:21.735Z,95009.00
2022-11-20T07:03:54.406Z,95103.00
2022-11-20T07:06:22.721Z,94845.00
2022-11-20T07:08:53.338Z,94933.00
2022-11-20T07:11:21.579Z,95002.00
2022-11-20T07:13:53.318Z,94712.00
2022-11-20T07:16:22.761Z,94675.00
2022-11-20T07:18:51.291Z,94702.00
2022-11-20T07:21:19.651Z,94709.00
2022-11-20T07:23:47.955Z,94770.00
2022-11-20T07:26:16.329Z,94947.00
2022-11-20T07:28:47.281Z,94966.00
2022-11-20T07:31:18.978Z,94923.00
2022-11-20T07:33:49.264Z,95000.00
2022-11-20T07:36:17.383Z,94926.00
2022-11-20T07:38:45.443Z,95030.00
2022-11-20T07:41:13.504Z,94969.00
2022-11-20T07:43:41.911Z,94840.00
2022-11-20T07:46:10.076Z,94770.00
2022-11-20T07:48:38.161Z,94850.00
2022-11-20T07:51:07.994Z,94990.00
2022-11-20T07:53:36.029Z,94808.00
2022-11-20T07:56:05.278Z,94837.00
2022-11-20T07:58:35.293Z,94855.00
2022-11-20T08:01:07.897Z,94709.00
2022-11-20T08:03:38.653Z,94936.00
2022-11-20T08:06:09.696Z,95010.00
2022-11-20T08:08:42.471Z,94900.00
2022-11-20T08:11:28.574Z,94902.00
2022-11-20T08:14:14.665Z,94761.00
2022-11-20T08:16:45.089Z,94757.00
2022-11-20T08:19:14.147Z,94656.00
2022-11-20T08:21:44.146Z,94778.00
2022-11-20T08:24:13.536Z,94841.00
2022-11-20T08:26:42.574Z,94908.00
2022-11-20T08:29:10.693Z,94841.00
2022-11-20T08:31:40.203Z,94901.00
2022-11-20T08:34:09.607Z,94904.00
2022-11-20T08:36:38.687Z,94876.00
2022-11-20T08:39:08.106Z,94926.00
2022-11-20T08:41:37.668Z,95030.00
2022-11-20T08:44:08.802Z,94828.00
2022-11-20T08:46:39.331Z,94810.00
2022-11-20T08:49:09.577Z,94808.00
2022-11-20T08:51:38.421Z,94834.00
2022-11-20T08:54:08.846Z,94860.00
2022-11-20T08:56:37.969Z,94899.00
2022-11-20T08:59:37.279Z,94860.00
2022-11-20T09:01:54.247Z,95191.00
2022-11-20T09:04:22.354Z,95392.00
2022-11-20T09:06:51.984Z,95278.00
2022-11-20T09:09:22.183Z,95282.00
2022-11-20T09:11:51.042Z,95110.00
2022-11-20T09:14:19.151Z,95188.00
2022-11-20T09:16:47.744Z,95164.00
2022-11-20T09:19:47.878Z,95305.00
2022-11-20T09:22:06.721Z,95190.00
2022-11-20T09:24:36.190Z,95190.00
2022-11-20T09:27:06.291Z,95258.00
2022-11-20T09:29:34.442Z,95180.00
2022-11-20T09:32:02.487Z,95205.00
2022-11-20T09:34:30.514Z,95242.00
2022-11-20T09:37:01.559Z,95114.00
2022-11-20T09:39:32.654Z,95117.00
2022-11-20T09:42:34.717Z,95112.00
2022-11-20T09:45:22.619Z,95056.00
2022-11-20T09:48:06.953Z,95131.00
2022-11-20T09:50:42.082Z,95181.00
2022-11-20T09:53:25.807Z,95145.00
2022-11-20T09:55:54.166Z,95096.00
2022-11-20T09:58:35.832Z,95184.00
2022-11-20T10:01:14.112Z,95269.00
2022-11-20T10:03:56.087Z,95247.00
2022-11-20T10:06:32.182Z,95132.00
2022-11-20T10:09:20.864Z,95176.00
2022-11-20T10:11:57.023Z,95233.00
2022-11-20T10:14:40.958Z,95135.00
2022-11-20T10:17:25.375Z,95128.00
2022-11-20T10:20:18.196Z,95213.00
2022-11-20T10:23:08.745Z,95187.00
2022-11-20T10:25:41.887Z,95069.00
2022-11-20T10:28:30.861Z,95225.00
2022-11-20T10:31:10.094Z,95259.00
2022-11-20T10:34:05.429Z,95192.00
2022-11-20T10:36:38.278Z,95238.00
2022-11-20T10:39:19.008Z,95135.00
2022-11-20T10:41:53.314Z,95244.00
2022-11-20T10:44:38.284Z,95108.00
2022-11-20T10:47:15.134Z,95194.00
2022-11-20T10:49:45.205Z,95070.00
2022-11-20T10:52:27.475Z,95779.00
2022-11-20T10:55:03.866Z,96058.00
2022-11-20T10:57:53.898Z,96072.00
2022-11-20T11:00:22.179Z,96065.00
2022-11-20T11:02:54.000Z,96196.00
2022-11-20T11:05:38.301Z,96185.00
2022-11-20T11:08:12.759Z,96173.00
2022-11-20T11:10:49.892Z,96168.00
2022-11-20T11:13:26.475Z,96184.00
2022-11-20T11:15:55.688Z,96160.00
2022-11-20T11:18:30.874Z,96185.00
2022-11-20T11:21:02.371Z,96157.00
2022-11-20T11:23:37.193Z,96158.00
2022-11-20T11:26:09.007Z,96156.00
2022-11-20T11:28:37.036Z,96171.00
2022-11-20T11:31:05.171Z,96167.00
2022-11-20T11:33:35.641Z,96174.00
2022-11-20T11:36:18.549Z,96183.00
2022-11-20T11:38:47.131Z,96064.00
2022-11-20T11:41:22.111Z,96154.00
2022-11-20T11:44:13.297Z,96147.00
2022-11-20T11:46:46.203Z,96106.00
2022-11-20T11:49:21.184Z,96149.00
2022-11-20T11:52:09.560Z,96155.00
2022-11-20T11:54:47.150Z,96150.00
2022-11-20T11:57:25.640Z,96148.00
2022-11-20T12:00:04.007Z,96175.00
2022-11-20T12:02:40.942Z,96187.00
2022-11-20T12:05:20.909Z,96152.00
2022-11-20T12:07:53.722Z,96181.00
2022-11-20T12:10:30.919Z,96155.00
2022-11-20T12:13:22.653Z,96075.00
2022-11-20T12:15:51.150Z,96149.00
2022-11-20T12:18:22.842Z,96151.00
2022-11-20T12:21:11.881Z,96133.00
2022-11-20T12:23:59.675Z,96138.00
2022-11-20T12:26:52.376Z,96142.00
2022-11-20T12:29:36.347Z,96140.00
2022-11-20T12:32:40.065Z,96127.00
2022-11-20T12:35:31.254Z,96139.00
2022-11-20T12:38:28.673Z,96128.00
2022-11-20T12:41:06.219Z,96131.00
2022-11-20T12:44:04.339Z,96115.00
2022-11-20T12:46:44.638Z,96115.00
2022-11-20T12:49:31.856Z,96094.00
2022-11-20T12:52:30.211Z,96125.00
2022-11-20T12:55:30.877Z,96117.00
2022-11-20T12:58:12.987Z,96114.00
2022-11-20T13:01:02.699Z,96144.00
2022-11-20T13:03:44.311Z,96133.00
2022-11-20T13:06:18.210Z,96131.00
2022-11-20T13:08:54.891Z,96129.00
2022-11-20T13:11:36.124Z,96130.00
2022-11-20T13:14:26.545Z,96129.00
2022-11-20T13:17:06.114Z,96109.00
2022-11-20T13:19:35.651Z,96130.00
2022-11-20T13:22:03.784Z,96131.00
2022-11-20T13:24:34.607Z,96143.00
2022-11-20T13:27:19.092Z,96139.00
2022-11-20T13:30:00.169Z,96150.00
2022-11-20T13:32:32.908Z,96159.00
2022-11-20T13:35:04.127Z,96094.00
2022-11-20T13:37:35.437Z,96143.00
2022-11-20T13:40:24.903Z,96149.00
2022-11-20T13:43:17.947Z,96159.00
2022-11-20T13:45:59.145Z,96128.00
2022-11-20T13:48:33.125Z,96138.00
2022-11-20T13:51:17.091Z,96123.00
2022-11-20T13:54:38.629Z,96116.00
2022-11-20T13:57:27.568Z,96135.00
2022-11-20T14:00:04.099Z,96116.00
2022-11-20T14:02:39.404Z,96133.00
2022-11-20T14:05:15.387Z,96117.00
2022-11-20T14:07:45.484Z,96134.00
2022-11-20T14:10:29.917Z,96126.00
2022-11-20T14:12:59.952Z,96137.00
2022-11-20T14:15:32.550Z,96087.00
2022-11-20T14:18:12.831Z,96133.00
2022-11-20T14:20:42.095Z,96134.00
2022-11-20T14:23:12.726Z,96123.00
2022-11-20T14:25:46.851Z,96126.00
2022-11-20T14:28:27.659Z,96131.00
2022-11-20T14:30:58.869Z,96134.00
2022-11-20T14:33:29.430Z,96144.00
2022-11-20T14:36:00.188Z,96124.00
2022-11-20T14:38:33.252Z,96137.00
2022-11-20T14:41:09.684Z,96118.00
2022-11-20T14:43:38.947Z,96148.00
2022-11-20T14:46:12.455Z,96134.00
2022-11-20T14:48:46.352Z,96069.00
2022-11-20T14:51:27.599Z,96158.00
2022-11-20T14:53:55.747Z,96143.00
2022-11-20T14:56:25.948Z,96069.00
2022-11-20T14:59:00.485Z,96093.00
2022-11-20T15:01:32.695Z,96127.00
2022-11-20T15:04:11.051Z,95649.00
2022-11-20T15:06:55.020Z,96135.00
2022-11-20T15:09:23.741Z,96132.00
2022-11-20T15:11:59.626Z,96122.00
2022-11-20T15:14:30.307Z,96131.00
2022-11-20T15:17:00.866Z,95928.00
2022-11-20T15:19:29.407Z,96125.00
2022-11-20T15:21:57.468Z,95804.00
2022-11-20T15:24:26.007Z,95753.00
2022-11-20T15:26:54.317Z,95745.00
2022-11-20T15:29:25.219Z,95732.00
2022-11-20T15:31:55.144Z,95680.00
2022-11-20T15:34:24.805Z,95636.00
2022-11-20T15:37:02.256Z,96128.00
2022-11-20T15:39:30.415Z,96131.00
2022-11-20T15:41:58.475Z,96128.00
2022-11-20T15:44:26.576Z,96132.00
2022-11-20T15:46:54.814Z,96126.00
2022-11-20T15:49:24.639Z,96139.00
2022-11-20T15:51:53.633Z,95893.00
2022-11-20T15:54:24.606Z,96126.00
2022-11-20T15:56:54.139Z,96120.00
2022-11-20T15:59:22.375Z,96111.00
2022-11-20T16:01:50.479Z,96036.00
2022-11-20T16:04:19.961Z,96057.00
2022-11-20T16:06:50.809Z,96118.00
2022-11-20T16:09:18.924Z,96125.00
2022-11-20T16:11:46.958Z,96116.00
2022-11-20T16:14:33.150Z,96109.00
2022-11-20T16:17:02.527Z,96125.00
2022-11-20T16:19:30.576Z,96108.00
2022-11-20T16:22:03.242Z,96116.00
2022-11-20T16:24:31.528Z,96110.00
2022-11-20T16:26:59.838Z,96136.00
2022-11-20T16:29:27.897Z,96092.00
2022-11-20T16:31:55.961Z,96089.00
2022-11-20T16:34:24.230Z,96099.00
2022-11-20T16:36:52.345Z,96112.00
2022-11-20T16:39:23.825Z,96108.00
2022-11-20T16:41:52.491Z,96099.00
2022-11-20T16:44:22.228Z,96117.00
2022-11-20T16:46:50.572Z,96100.00
2022-11-20T16:49:19.231Z,96208.00
2022-11-20T16:51:47.370Z,96097.00
2022-11-20T16:54:20.529Z,96094.00
2022-11-20T16:56:51.857Z,96105.00
2022-11-20T16:59:20.275Z,96102.00
2022-11-20T17:01:48.413Z,96095.00
2022-11-20T17:04:16.745Z,96092.00
2022-11-20T17:06:46.207Z,96110.00
2022-11-20T17:09:14.756Z,96113.00
2022-11-20T17:11:43.266Z,96109.00
2022-11-20T17:14:13.603Z,96103.00
2022-11-20T17:16:42.970Z,96042.00
2022-11-20T17:19:13.583Z,96052.00
2022-11-20T17:21:44.589Z,96014.00
2022-11-20T17:24:15.861Z,96040.00
2022-11-20T17:26:45.791Z,96029.00
2022-11-20T17:29:17.644Z,96045.00
2022-11-20T17:31:47.426Z,96027.00
2022-11-20T17:34:17.232Z,96020.00
2022-11-20T17:36:46.526Z,96072.00
2022-11-20T17:39:16.103Z,96051.00
2022-11-20T17:41:45.034Z,96064.00
2022-11-20T17:44:14.748Z,95833.00
2022-11-20T17:46:42.836Z,96088.00
2022-11-20T17:49:10.909Z,96092.00
2022-11-20T17:51:38.950Z,96096.00
2022-11-20T17:54:08.348Z,96080.00
2022-11-20T17:56:54.906Z,96069.00
2022-11-20T17:59:24.422Z,96069.00
2022-11-20T18:01:52.672Z,96076.00
2022-11-20T18:04:20.861Z,96076.00
2022-11-20T18:06:48.950Z,96097.00
2022-11-20T18:09:20.107Z,96062.00
2022-11-20T18:11:48.154Z,96066.00
2022-11-20T18:14:32.123Z,96044.00
2022-11-20T18:17:06.176Z,96022.00
2022-11-20T18:19:41.229Z,96044.00
2022-11-20T18:22:18.232Z,96033.00
2022-11-20T18:24:46.901Z,96045.00
2022-11-20T18:27:17.636Z,96044.00
2022-11-20T18:29:48.523Z,96056.00
2022-11-20T18:32:17.927Z,96042.00
2022-11-20T18:34:46.222Z,96016.00
2022-11-20T18:37:16.494Z,96029.00
2022-11-20T18:39:44.868Z,96008.00
2022-11-20T18:42:33.040Z,95998.00
2022-11-20T18:45:02.287Z,96010.00
2022-11-20T18:47:37.321Z,95994.00
2022-11-20T18:50:08.384Z,95979.00
2022-11-20T18:52:41.642Z,95987.00
2022-11-20T18:55:11.938Z,95953.00
2022-11-20T18:57:40.158Z,95637.00
2022-11-20T19:00:10.422Z,95617.00
2022-11-20T19:02:42.740Z,95928.00
2022-11-20T19:05:12.277Z,95925.00
2022-11-20T19:07:40.959Z,95905.00
2022-11-20T19:10:09.814Z,95907.00
2022-11-20T19:12:38.362Z,95957.00
2022-11-20T19:15:07.936Z,95942.00
2022-11-20T19:17:36.032Z,95949.00
2022-11-20T19:20:06.325Z,95979.00
2022-11-20T19:22:34.394Z,95814.00
2022-11-20T19:25:02.474Z,95924.00
2022-11-20T19:27:30.594Z,95901.00
2022-11-20T19:30:03.122Z,95927.00
2022-11-20T19:32:32.429Z,95914.00
2022-11-20T19:35:00.482Z,95858.00
2022-11-20T19:37:29.905Z,95961.00
2022-11-20T19:39:59.600Z,95366.00
2022-11-20T19:42:27.800Z,95899.00
2022-11-20T19:44:55.854Z,95915.00
2022-11-20T19:47:35.366Z,95914.00
2022-11-20T19:50:12.069Z,95908.00
2022-11-20T19:52:41.872Z,95937.00
2022-11-20T19:55:10.825Z,95930.00
2022-11-20T19:57:38.960Z,95955.00
2022-11-20T20:00:09.266Z,95953.00
2022-11-20T20:02:37.396Z,95944.00
2022-11-20T20:05:06.354Z,95937.00
2022-11-20T20:07:34.470Z,95932.00
2022-11-20T20:10:04.084Z,95922.00
2022-11-20T20:12:32.653Z,95448.00
2022-11-20T20:15:00.678Z,95886.00
2022-11-20T20:17:28.747Z,95909.00
2022-11-20T20:20:00.225Z,95185.00
2022-11-20T20:22:28.305Z,95204.00
2022-11-20T20:24:56.363Z,95253.00
2022-11-20T20:27:25.794Z,95027.00
2022-11-20T20:29:53.849Z,95095.00
2022-11-20T20:32:22.261Z,95038.00
2022-11-20T20:34:50.307Z,95102.00
2022-11-20T20:37:18.395Z,95130.00
2022-11-20T20:39:46.452Z,95033.00
2022-11-20T20:42:14.523Z,94968.00
2022-11-20T20:45:01.587Z,95124.00
2022-11-20T20:47:32.178Z,95111.00
2022-11-20T20:50:00.399Z,95230.00
2022-11-20T20:52:28.557Z,95864.00
2022-11-20T20:54:56.833Z,94999.00
2022-11-20T20:57:27.627Z,95079.00
2022-11-20T20:59:57.223Z,94916.00
2022-11-20T21:02:25.625Z,95196.00
2022-11-20T21:04:53.854Z,95809.00
2022-11-20T21:07:22.083Z,95826.00
2022-11-20T21:09:50.167Z,95126.00
2022-11-20T21:12:18.683Z,95220.00
2022-11-20T21:14:46.739Z,95260.00
2022-11-20T21:17:16.141Z,95166.00
2022-11-20T21:19:44.229Z,95139.00
2022-11-20T21:22:11.322Z,95148.00
2022-11-20T21:24:39.384Z,95101.00
2022-11-20T21:27:07.876Z,95053.00
2022-11-20T21:29:35.910Z,95608.00
2022-11-20T21:32:04.005Z,95061.00
2022-11-20T21:34:33.411Z,94989.00
2022-11-20T21:37:01.457Z,95106.00
2022-11-20T21:39:30.452Z,95069.00
2022-11-20T21:41:58.490Z,95074.00
2022-11-20T21:44:31.360Z,95020.00
2022-11-20T21:46:59.994Z,94969.00
2022-11-20T21:49:28.022Z,95009.00
2022-11-20T21:51:57.445Z,94933.00
2022-11-20T21:54:26.458Z,94893.00
2022-11-20T21:56:54.887Z,95007.00
2022-11-20T21:59:23.216Z,94967.00
2022-11-20T22:01:51.360Z,95694.00
2022-11-20T22:04:19.982Z,94945.00
2022-11-20T22:06:48.726Z,94940.00
2022-11-20T22:09:18.203Z,94892.00
2022-11-20T22:11:46.276Z,94875.00
2022-11-20T22:14:22.620Z,94858.00
2022-11-20T22:16:53.131Z,94961.00
2022-11-20T22:19:22.935Z,94854.00
2022-11-20T22:21:54.618Z,94866.00
2022-11-20T22:24:24.457Z,95685.00
2022-11-20T22:26:52.731Z,95131.00
2022-11-20T22:29:22.377Z,94976.00
2022-11-20T22:31:55.892Z,94962.00
2022-11-20T22:34:24.196Z,94941.00
2022-11-20T22:36:52.513Z,94919.00
2022-11-20T22:39:22.750Z,94964.00
2022-11-20T22:41:52.144Z,94924.00
2022-11-20T22:44:20.193Z,94950.00
2022-11-20T22:46:48.229Z,94973.00
2022-11-20T22:49:16.254Z,94902.00
2022-11-20T22:51:44.349Z,94922.00
2022-11-20T22:54:13.486Z,94835.00
2022-11-20T22:56:41.832Z,94870.00
2022-11-20T22:59:11.388Z,94885.00
2022-11-20T23:01:39.613Z,94850.00
2022-11-20T23:04:11.522Z,94855.00
2022-11-20T23:06:39.819Z,94770.00
2022-11-20T23:09:09.598Z,94824.00
2022-11-20T23:11:37.863Z,94845.00
2022-11-20T23:14:08.602Z,94853.00
2022-11-20T23:16:37.993Z,94760.00
2022-11-20T23:19:09.005Z,94694.00
2022-11-20T23:21:39.359Z,95611.00
2022-11-20T23:24:09.423Z,94824.00
2022-11-20T23:26:40.751Z,94723.00
2022-11-20T23:29:09.575Z,94738.00
2022-11-20T23:31:39.002Z,94767.00
2022-11-20T23:34:07.211Z,94744.00
2022-11-20T23:36:35.301Z,94830.00
2022-11-20T23:39:03.347Z,94715.00
2022-11-20T23:41:31.408Z,94773.00
2022-11-20T23:43:59.465Z,94775.00
2022-11-20T23:46:27.526Z,94727.00
2022-11-20T23:48:56.935Z,94732.00
2022-11-20T23:51:25.016Z,94744.00
2022-11-20T23:53:53.119Z,94711.00
2022-11-20T23:56:21.203Z,94695.00
2022-11-20T23:58:49.262Z,95617.00
